sensor_id;sensor_type;location;lat;lon;timestamp;P1;durP1;ratioP1;P2;durP2;ratioP2
30617;SDS011;17384;51.214;9.202;2023-06-22T00:00:55;42.63;;;20.70;;
30617;SDS011;17384;51.214;9.202;2023-06-22T00:03:22;26.65;;;17.95;;
30617;SDS011;17384;51.214;9.202;2023-06-22T00:05:49;25.17;;;19.48;;
30617;SDS011;17384;51.214;9.202;2023-06-22T00:08:15;32.17;;;16.95;;
30617;SDS011;17384;51.214;9.202;2023-06-22T00:10:41;21.23;;;15.65;;
30617;SDS011;17384;51.214;9.202;2023-06-22T00:13:07;26.27;;;17.67;;
30617;SDS011;17384;51.214;9.202;2023-06-22T00:15:34;27.85;;;17.33;;
30617;SDS011;17384;51.214;9.202;2023-06-22T00:18:01;26.17;;;17.25;;
30617;SDS011;17384;51.214;9.202;2023-06-22T00:20:27;23.55;;;16.25;;
30617;SDS011;17384;51.214;9.202;2023-06-22T00:22:56;32.28;;;15.68;;
30617;SDS011;17384;51.214;9.202;2023-06-22T00:25:23;31.52;;;15.32;;
30617;SDS011;17384;51.214;9.202;2023-06-22T00:27:49;24.48;;;15.32;;
30617;SDS011;17384;51.214;9.202;2023-06-22T00:30:18;30.75;;;17.75;;
30617;SDS011;17384;51.214;9.202;2023-06-22T00:32:44;22.85;;;15.82;;
30617;SDS011;17384;51.214;9.202;2023-06-22T00:35:11;34.53;;;16.00;;
30617;SDS011;17384;51.214;9.202;2023-06-22T00:37:38;22.83;;;16.40;;
30617;SDS011;17384;51.214;9.202;2023-06-22T00:40:07;25.75;;;16.08;;
30617;SDS011;17384;51.214;9.202;2023-06-22T00:42:37;30.15;;;16.83;;
30617;SDS011;17384;51.214;9.202;2023-06-22T00:45:04;25.33;;;16.67;;
30617;SDS011;17384;51.214;9.202;2023-06-22T00:47:30;25.30;;;16.45;;
30617;SDS011;17384;51.214;9.202;2023-06-22T00:49:56;26.50;;;16.35;;
30617;SDS011;17384;51.214;9.202;2023-06-22T00:52:22;25.08;;;19.88;;
30617;SDS011;17384;51.214;9.202;2023-06-22T00:54:52;26.48;;;18.90;;
30617;SDS011;17384;51.214;9.202;2023-06-22T00:57:27;27.83;;;18.73;;
30617;SDS011;17384;51.214;9.202;2023-06-22T00:59:53;37.42;;;21.08;;
30617;SDS011;17384;51.214;9.202;2023-06-22T01:02:20;38.33;;;21.90;;
30617;SDS011;17384;51.214;9.202;2023-06-22T01:04:45;35.15;;;22.52;;
30617;SDS011;17384;51.214;9.202;2023-06-22T01:10:04;54.13;;;25.00;;
30617;SDS011;17384;51.214;9.202;2023-06-22T01:12:44;48.97;;;23.33;;
30617;SDS011;17384;51.214;9.202;2023-06-22T01:15:15;42.67;;;23.50;;
30617;SDS011;17384;51.214;9.202;2023-06-22T01:17:47;34.75;;;22.95;;
30617;SDS011;17384;51.214;9.202;2023-06-22T01:20:15;29.30;;;22.08;;
30617;SDS011;17384;51.214;9.202;2023-06-22T01:22:48;40.72;;;24.20;;
30617;SDS011;17384;51.214;9.202;2023-06-22T01:25:28;57.75;;;28.75;;
30617;SDS011;17384;51.214;9.202;2023-06-22T01:28:19;48.33;;;28.98;;
30617;SDS011;17384;51.214;9.202;2023-06-22T01:30:50;37.50;;;24.15;;
30617;SDS011;17384;51.214;9.202;2023-06-22T01:33:28;32.50;;;21.98;;
30617;SDS011;17384;51.214;9.202;2023-06-22T01:35:56;29.55;;;19.95;;
30617;SDS011;17384;51.214;9.202;2023-06-22T01:38:22;28.40;;;19.35;;
30617;SDS011;17384;51.214;9.202;2023-06-22T01:40:48;27.52;;;18.33;;
30617;SDS011;17384;51.214;9.202;2023-06-22T01:43:14;33.90;;;17.55;;
30617;SDS011;17384;51.214;9.202;2023-06-22T01:45:40;33.75;;;17.88;;
30617;SDS011;17384;51.214;9.202;2023-06-22T01:48:07;33.80;;;18.10;;
30617;SDS011;17384;51.214;9.202;2023-06-22T01:50:33;42.78;;;19.40;;
30617;SDS011;17384;51.214;9.202;2023-06-22T01:52:58;38.85;;;17.60;;
30617;SDS011;17384;51.214;9.202;2023-06-22T01:55:24;33.88;;;21.25;;
30617;SDS011;17384;51.214;9.202;2023-06-22T01:57:49;34.50;;;20.70;;
30617;SDS011;17384;51.214;9.202;2023-06-22T02:00:17;27.13;;;19.45;;
30617;SDS011;17384;51.214;9.202;2023-06-22T02:02:56;27.55;;;19.70;;
30617;SDS011;17384;51.214;9.202;2023-06-22T02:05:37;44.97;;;24.05;;
30617;SDS011;17384;51.214;9.202;2023-06-22T02:08:21;30.25;;;22.13;;
30617;SDS011;17384;51.214;9.202;2023-06-22T02:10:49;35.78;;;22.20;;
30617;SDS011;17384;51.214;9.202;2023-06-22T02:13:17;35.55;;;22.83;;
30617;SDS011;17384;51.214;9.202;2023-06-22T02:15:44;38.35;;;21.90;;
30617;SDS011;17384;51.214;9.202;2023-06-22T02:18:10;40.83;;;21.98;;
30617;SDS011;17384;51.214;9.202;2023-06-22T02:20:37;48.08;;;22.23;;
30617;SDS011;17384;51.214;9.202;2023-06-22T02:23:03;47.38;;;22.30;;
30617;SDS011;17384;51.214;9.202;2023-06-22T02:25:28;39.58;;;21.75;;
30617;SDS011;17384;51.214;9.202;2023-06-22T02:27:54;39.78;;;21.67;;
30617;SDS011;17384;51.214;9.202;2023-06-22T02:30:19;45.58;;;22.67;;
30617;SDS011;17384;51.214;9.202;2023-06-22T02:32:45;48.20;;;22.98;;
30617;SDS011;17384;51.214;9.202;2023-06-22T02:35:10;40.40;;;23.20;;
30617;SDS011;17384;51.214;9.202;2023-06-22T02:37:36;43.75;;;23.85;;
30617;SDS011;17384;51.214;9.202;2023-06-22T02:40:04;35.03;;;23.15;;
30617;SDS011;17384;51.214;9.202;2023-06-22T02:42:32;43.13;;;23.17;;
30617;SDS011;17384;51.214;9.202;2023-06-22T02:44:57;35.15;;;23.27;;
30617;SDS011;17384;51.214;9.202;2023-06-22T02:47:23;41.08;;;22.08;;
30617;SDS011;17384;51.214;9.202;2023-06-22T02:49:48;43.00;;;21.35;;
30617;SDS011;17384;51.214;9.202;2023-06-22T02:52:14;31.40;;;21.27;;
30617;SDS011;17384;51.214;9.202;2023-06-22T02:54:39;46.65;;;22.38;;
30617;SDS011;17384;51.214;9.202;2023-06-22T02:57:05;31.75;;;21.17;;
30617;SDS011;17384;51.214;9.202;2023-06-22T02:59:30;34.70;;;22.83;;
30617;SDS011;17384;51.214;9.202;2023-06-22T03:01:55;35.55;;;23.67;;
30617;SDS011;17384;51.214;9.202;2023-06-22T03:04:21;32.83;;;22.42;;
30617;SDS011;17384;51.214;9.202;2023-06-22T03:06:46;39.42;;;22.08;;
30617;SDS011;17384;51.214;9.202;2023-06-22T03:09:16;29.40;;;22.80;;
30617;SDS011;17384;51.214;9.202;2023-06-22T03:11:42;36.17;;;21.02;;
30617;SDS011;17384;51.214;9.202;2023-06-22T03:14:07;29.05;;;22.08;;
30617;SDS011;17384;51.214;9.202;2023-06-22T03:16:33;36.55;;;22.63;;
30617;SDS011;17384;51.214;9.202;2023-06-22T03:18:58;36.08;;;23.73;;
30617;SDS011;17384;51.214;9.202;2023-06-22T03:21:27;38.22;;;23.58;;
30617;SDS011;17384;51.214;9.202;2023-06-22T03:23:53;36.75;;;24.00;;
30617;SDS011;17384;51.214;9.202;2023-06-22T03:26:19;42.53;;;23.83;;
30617;SDS011;17384;51.214;9.202;2023-06-22T03:28:45;48.10;;;25.45;;
30617;SDS011;17384;51.214;9.202;2023-06-22T03:31:10;44.40;;;26.63;;
30617;SDS011;17384;51.214;9.202;2023-06-22T03:33:36;43.63;;;25.95;;
30617;SDS011;17384;51.214;9.202;2023-06-22T03:36:01;38.20;;;25.00;;
30617;SDS011;17384;51.214;9.202;2023-06-22T03:38:27;43.40;;;26.70;;
30617;SDS011;17384;51.214;9.202;2023-06-22T03:40:52;39.60;;;26.85;;
30617;SDS011;17384;51.214;9.202;2023-06-22T03:43:18;53.95;;;27.52;;
30617;SDS011;17384;51.214;9.202;2023-06-22T03:45:43;42.28;;;25.95;;
30617;SDS011;17384;51.214;9.202;2023-06-22T03:48:10;40.70;;;26.98;;
30617;SDS011;17384;51.214;9.202;2023-06-22T03:50:36;55.33;;;29.77;;
30617;SDS011;17384;51.214;9.202;2023-06-22T03:53:02;39.67;;;27.88;;
30617;SDS011;17384;51.214;9.202;2023-06-22T03:55:27;35.65;;;27.58;;
30617;SDS011;17384;51.214;9.202;2023-06-22T03:57:53;43.65;;;29.33;;
30617;SDS011;17384;51.214;9.202;2023-06-22T04:00:21;43.88;;;30.20;;
30617;SDS011;17384;51.214;9.202;2023-06-22T04:02:47;43.88;;;27.80;;
30617;SDS011;17384;51.214;9.202;2023-06-22T04:05:13;38.33;;;29.48;;
30617;SDS011;17384;51.214;9.202;2023-06-22T04:07:38;44.13;;;27.08;;
30617;SDS011;17384;51.214;9.202;2023-06-22T04:10:04;44.63;;;30.58;;
30617;SDS011;17384;51.214;9.202;2023-06-22T04:12:30;35.83;;;26.23;;
30617;SDS011;17384;51.214;9.202;2023-06-22T04:14:56;39.03;;;27.65;;
30617;SDS011;17384;51.214;9.202;2023-06-22T04:17:21;29.33;;;24.13;;
30617;SDS011;17384;51.214;9.202;2023-06-22T04:19:49;35.03;;;23.77;;
30617;SDS011;17384;51.214;9.202;2023-06-22T04:22:15;33.20;;;24.23;;
30617;SDS011;17384;51.214;9.202;2023-06-22T04:24:40;36.30;;;25.42;;
30617;SDS011;17384;51.214;9.202;2023-06-22T04:27:06;42.33;;;24.42;;
30617;SDS011;17384;51.214;9.202;2023-06-22T04:29:31;31.50;;;24.35;;
30617;SDS011;17384;51.214;9.202;2023-06-22T04:31:57;32.60;;;25.55;;
30617;SDS011;17384;51.214;9.202;2023-06-22T04:34:23;33.20;;;25.38;;
30617;SDS011;17384;51.214;9.202;2023-06-22T04:36:52;44.80;;;29.77;;
30617;SDS011;17384;51.214;9.202;2023-06-22T04:39:18;42.25;;;28.65;;
30617;SDS011;17384;51.214;9.202;2023-06-22T04:41:44;37.22;;;26.77;;
30617;SDS011;17384;51.214;9.202;2023-06-22T04:44:10;43.95;;;26.08;;
30617;SDS011;17384;51.214;9.202;2023-06-22T04:46:35;41.35;;;26.08;;
30617;SDS011;17384;51.214;9.202;2023-06-22T04:49:03;41.53;;;30.35;;
30617;SDS011;17384;51.214;9.202;2023-06-22T04:51:31;46.47;;;27.67;;
30617;SDS011;17384;51.214;9.202;2023-06-22T04:53:57;41.65;;;29.77;;
30617;SDS011;17384;51.214;9.202;2023-06-22T04:56:26;46.10;;;33.72;;
30617;SDS011;17384;51.214;9.202;2023-06-22T04:58:53;52.80;;;32.85;;
30617;SDS011;17384;51.214;9.202;2023-06-22T05:01:20;53.65;;;32.92;;
30617;SDS011;17384;51.214;9.202;2023-06-22T05:03:47;42.58;;;31.50;;
30617;SDS011;17384;51.214;9.202;2023-06-22T05:06:13;40.53;;;33.25;;
30617;SDS011;17384;51.214;9.202;2023-06-22T05:08:39;51.20;;;32.80;;
30617;SDS011;17384;51.214;9.202;2023-06-22T05:11:05;43.22;;;31.63;;
30617;SDS011;17384;51.214;9.202;2023-06-22T05:13:30;41.55;;;31.48;;
30617;SDS011;17384;51.214;9.202;2023-06-22T05:15:56;38.13;;;28.73;;
30617;SDS011;17384;51.214;9.202;2023-06-22T05:18:27;35.20;;;29.23;;
30617;SDS011;17384;51.214;9.202;2023-06-22T05:20:54;36.65;;;27.98;;
30617;SDS011;17384;51.214;9.202;2023-06-22T05:23:20;36.78;;;27.45;;
30617;SDS011;17384;51.214;9.202;2023-06-22T05:25:45;38.13;;;26.95;;
30617;SDS011;17384;51.214;9.202;2023-06-22T05:28:11;32.25;;;24.25;;
30617;SDS011;17384;51.214;9.202;2023-06-22T05:30:37;37.47;;;25.73;;
30617;SDS011;17384;51.214;9.202;2023-06-22T05:33:03;32.65;;;25.92;;
30617;SDS011;17384;51.214;9.202;2023-06-22T05:35:28;27.58;;;22.95;;
30617;SDS011;17384;51.214;9.202;2023-06-22T05:37:54;29.33;;;23.13;;
30617;SDS011;17384;51.214;9.202;2023-06-22T05:40:20;26.98;;;21.90;;
30617;SDS011;17384;51.214;9.202;2023-06-22T05:42:46;27.17;;;22.50;;
30617;SDS011;17384;51.214;9.202;2023-06-22T05:45:12;34.38;;;24.33;;
30617;SDS011;17384;51.214;9.202;2023-06-22T05:47:38;33.55;;;24.23;;
30617;SDS011;17384;51.214;9.202;2023-06-22T05:50:04;31.45;;;24.13;;
30617;SDS011;17384;51.214;9.202;2023-06-22T05:52:32;30.05;;;22.73;;
30617;SDS011;17384;51.214;9.202;2023-06-22T05:54:58;27.05;;;22.02;;
30617;SDS011;17384;51.214;9.202;2023-06-22T05:57:23;27.52;;;21.55;;
30617;SDS011;17384;51.214;9.202;2023-06-22T05:59:49;27.58;;;20.83;;
30617;SDS011;17384;51.214;9.202;2023-06-22T06:02:14;27.50;;;21.80;;
30617;SDS011;17384;51.214;9.202;2023-06-22T06:04:40;27.05;;;19.52;;
30617;SDS011;17384;51.214;9.202;2023-06-22T06:07:05;26.42;;;20.38;;
30617;SDS011;17384;51.214;9.202;2023-06-22T06:09:30;28.88;;;20.70;;
30617;SDS011;17384;51.214;9.202;2023-06-22T06:11:56;26.85;;;21.20;;
30617;SDS011;17384;51.214;9.202;2023-06-22T06:14:21;31.05;;;20.95;;
30617;SDS011;17384;51.214;9.202;2023-06-22T06:16:48;27.33;;;20.77;;
30617;SDS011;17384;51.214;9.202;2023-06-22T06:19:14;30.20;;;21.80;;
30617;SDS011;17384;51.214;9.202;2023-06-22T06:21:39;27.52;;;20.60;;
30617;SDS011;17384;51.214;9.202;2023-06-22T06:24:05;28.88;;;22.77;;
30617;SDS011;17384;51.214;9.202;2023-06-22T06:26:30;31.52;;;22.58;;
30617;SDS011;17384;51.214;9.202;2023-06-22T06:28:59;24.60;;;21.25;;
30617;SDS011;17384;51.214;9.202;2023-06-22T06:31:25;33.28;;;24.45;;
30617;SDS011;17384;51.214;9.202;2023-06-22T06:33:53;31.70;;;24.20;;
30617;SDS011;17384;51.214;9.202;2023-06-22T06:36:19;33.10;;;25.00;;
30617;SDS011;17384;51.214;9.202;2023-06-22T06:38:45;29.83;;;24.30;;
30617;SDS011;17384;51.214;9.202;2023-06-22T06:41:15;35.65;;;25.50;;
30617;SDS011;17384;51.214;9.202;2023-06-22T06:43:41;36.00;;;25.02;;
30617;SDS011;17384;51.214;9.202;2023-06-22T06:46:09;32.85;;;24.45;;
30617;SDS011;17384;51.214;9.202;2023-06-22T06:48:35;33.95;;;23.90;;
30617;SDS011;17384;51.214;9.202;2023-06-22T06:51:00;30.75;;;23.17;;
30617;SDS011;17384;51.214;9.202;2023-06-22T06:53:26;27.17;;;22.38;;
30617;SDS011;17384;51.214;9.202;2023-06-22T06:58:19;26.80;;;21.02;;
30617;SDS011;17384;51.214;9.202;2023-06-22T07:00:45;27.13;;;21.25;;
30617;SDS011;17384;51.214;9.202;2023-06-22T07:03:10;33.35;;;21.50;;
30617;SDS011;17384;51.214;9.202;2023-06-22T07:05:36;33.35;;;21.50;;
30617;SDS011;17384;51.214;9.202;2023-06-22T07:08:01;35.17;;;19.90;;
30617;SDS011;17384;51.214;9.202;2023-06-22T07:10:28;27.60;;;19.70;;
30617;SDS011;17384;51.214;9.202;2023-06-22T07:12:54;28.27;;;18.73;;
30617;SDS011;17384;51.214;9.202;2023-06-22T07:15:20;24.55;;;18.60;;
30617;SDS011;17384;51.214;9.202;2023-06-22T07:17:45;28.85;;;18.85;;
30617;SDS011;17384;51.214;9.202;2023-06-22T07:20:10;27.10;;;18.45;;
30617;SDS011;17384;51.214;9.202;2023-06-22T07:22:37;26.95;;;18.25;;
30617;SDS011;17384;51.214;9.202;2023-06-22T07:25:04;19.70;;;16.80;;
30617;SDS011;17384;51.214;9.202;2023-06-22T07:27:34;25.35;;;15.82;;
30617;SDS011;17384;51.214;9.202;2023-06-22T07:30:05;16.67;;;14.82;;
30617;SDS011;17384;51.214;9.202;2023-06-22T07:32:31;17.25;;;14.98;;
30617;SDS011;17384;51.214;9.202;2023-06-22T07:34:57;25.05;;;16.27;;
30617;SDS011;17384;51.214;9.202;2023-06-22T07:37:22;19.98;;;16.92;;
30617;SDS011;17384;51.214;9.202;2023-06-22T07:39:48;20.98;;;15.15;;
30617;SDS011;17384;51.214;9.202;2023-06-22T07:42:15;24.08;;;16.35;;
30617;SDS011;17384;51.214;9.202;2023-06-22T07:44:43;21.05;;;15.50;;
30617;SDS011;17384;51.214;9.202;2023-06-22T07:47:09;21.98;;;14.75;;
30617;SDS011;17384;51.214;9.202;2023-06-22T07:49:34;19.90;;;16.15;;
30617;SDS011;17384;51.214;9.202;2023-06-22T07:52:00;21.55;;;14.75;;
30617;SDS011;17384;51.214;9.202;2023-06-22T07:54:26;19.33;;;15.00;;
30617;SDS011;17384;51.214;9.202;2023-06-22T07:56:52;17.90;;;15.02;;
30617;SDS011;17384;51.214;9.202;2023-06-22T07:59:17;24.02;;;14.18;;
30617;SDS011;17384;51.214;9.202;2023-06-22T08:01:43;19.52;;;14.88;;
30617;SDS011;17384;51.214;9.202;2023-06-22T08:04:08;17.92;;;14.63;;
30617;SDS011;17384;51.214;9.202;2023-06-22T08:06:34;21.13;;;14.93;;
30617;SDS011;17384;51.214;9.202;2023-06-22T08:08:59;19.45;;;13.88;;
30617;SDS011;17384;51.214;9.202;2023-06-22T08:11:25;22.92;;;13.52;;
30617;SDS011;17384;51.214;9.202;2023-06-22T08:13:51;15.40;;;11.65;;
30617;SDS011;17384;51.214;9.202;2023-06-22T08:16:16;17.67;;;10.70;;
30617;SDS011;17384;51.214;9.202;2023-06-22T08:18:42;12.63;;;9.95;;
30617;SDS011;17384;51.214;9.202;2023-06-22T08:21:08;15.07;;;10.35;;
30617;SDS011;17384;51.214;9.202;2023-06-22T08:23:33;16.00;;;9.93;;
30617;SDS011;17384;51.214;9.202;2023-06-22T08:26:00;10.48;;;9.25;;
30617;SDS011;17384;51.214;9.202;2023-06-22T08:28:25;12.68;;;8.82;;
30617;SDS011;17384;51.214;9.202;2023-06-22T08:30:51;11.25;;;9.32;;
30617;SDS011;17384;51.214;9.202;2023-06-22T08:33:16;13.32;;;9.18;;
30617;SDS011;17384;51.214;9.202;2023-06-22T08:35:42;14.02;;;8.98;;
30617;SDS011;17384;51.214;9.202;2023-06-22T08:38:08;10.25;;;9.13;;
30617;SDS011;17384;51.214;9.202;2023-06-22T08:40:34;12.73;;;9.23;;
30617;SDS011;17384;51.214;9.202;2023-06-22T08:42:59;14.13;;;9.45;;
30617;SDS011;17384;51.214;9.202;2023-06-22T08:45:25;13.85;;;10.60;;
30617;SDS011;17384;51.214;9.202;2023-06-22T08:47:50;15.50;;;10.23;;
30617;SDS011;17384;51.214;9.202;2023-06-22T08:50:15;13.45;;;10.23;;
30617;SDS011;17384;51.214;9.202;2023-06-22T08:52:41;9.18;;;8.18;;
30617;SDS011;17384;51.214;9.202;2023-06-22T08:55:07;13.27;;;9.43;;
30617;SDS011;17384;51.214;9.202;2023-06-22T08:57:33;12.13;;;9.93;;
30617;SDS011;17384;51.214;9.202;2023-06-22T08:59:59;13.07;;;9.57;;
30617;SDS011;17384;51.214;9.202;2023-06-22T09:02:25;13.52;;;8.80;;
30617;SDS011;17384;51.214;9.202;2023-06-22T09:04:51;11.75;;;8.23;;
30617;SDS011;17384;51.214;9.202;2023-06-22T09:07:21;11.07;;;8.88;;
30617;SDS011;17384;51.214;9.202;2023-06-22T09:09:47;14.38;;;9.25;;
30617;SDS011;17384;51.214;9.202;2023-06-22T09:12:13;9.75;;;8.75;;
30617;SDS011;17384;51.214;9.202;2023-06-22T09:14:38;11.25;;;9.15;;
30617;SDS011;17384;51.214;9.202;2023-06-22T09:17:04;11.88;;;9.55;;
30617;SDS011;17384;51.214;9.202;2023-06-22T09:19:30;12.02;;;8.88;;
30617;SDS011;17384;51.214;9.202;2023-06-22T09:21:55;10.02;;;8.48;;
30617;SDS011;17384;51.214;9.202;2023-06-22T09:24:20;10.40;;;7.90;;
30617;SDS011;17384;51.214;9.202;2023-06-22T09:26:46;12.57;;;8.68;;
30617;SDS011;17384;51.214;9.202;2023-06-22T09:29:11;12.68;;;8.80;;
30617;SDS011;17384;51.214;9.202;2023-06-22T09:31:37;12.52;;;8.52;;
30617;SDS011;17384;51.214;9.202;2023-06-22T09:34:02;10.50;;;9.05;;
30617;SDS011;17384;51.214;9.202;2023-06-22T09:36:28;10.70;;;9.32;;
30617;SDS011;17384;51.214;9.202;2023-06-22T09:38:53;10.45;;;9.43;;
30617;SDS011;17384;51.214;9.202;2023-06-22T09:41:23;16.45;;;9.73;;
30617;SDS011;17384;51.214;9.202;2023-06-22T09:43:49;10.60;;;8.80;;
30617;SDS011;17384;51.214;9.202;2023-06-22T09:46:15;11.90;;;9.43;;
30617;SDS011;17384;51.214;9.202;2023-06-22T09:48:41;14.63;;;8.48;;
30617;SDS011;17384;51.214;9.202;2023-06-22T09:51:06;11.23;;;8.60;;
30617;SDS011;17384;51.214;9.202;2023-06-22T09:53:32;11.88;;;9.60;;
30617;SDS011;17384;51.214;9.202;2023-06-22T09:55:57;11.75;;;8.35;;
30617;SDS011;17384;51.214;9.202;2023-06-22T09:58:23;12.00;;;8.07;;
30617;SDS011;17384;51.214;9.202;2023-06-22T10:00:48;9.82;;;8.82;;
30617;SDS011;17384;51.214;9.202;2023-06-22T10:03:14;12.00;;;8.80;;
30617;SDS011;17384;51.214;9.202;2023-06-22T10:05:39;10.65;;;9.18;;
30617;SDS011;17384;51.214;9.202;2023-06-22T10:08:04;11.40;;;8.52;;
30617;SDS011;17384;51.214;9.202;2023-06-22T10:10:32;9.90;;;8.73;;
30617;SDS011;17384;51.214;9.202;2023-06-22T10:13:02;10.65;;;8.85;;
30617;SDS011;17384;51.214;9.202;2023-06-22T10:15:32;11.65;;;8.13;;
30617;SDS011;17384;51.214;9.202;2023-06-22T10:17:57;9.45;;;8.27;;
30617;SDS011;17384;51.214;9.202;2023-06-22T10:20:23;11.77;;;8.23;;
30617;SDS011;17384;51.214;9.202;2023-06-22T10:22:49;9.35;;;8.35;;
30617;SDS011;17384;51.214;9.202;2023-06-22T10:25:14;16.20;;;8.23;;
30617;SDS011;17384;51.214;9.202;2023-06-22T10:27:40;10.27;;;8.65;;
30617;SDS011;17384;51.214;9.202;2023-06-22T10:30:06;11.18;;;8.27;;
30617;SDS011;17384;51.214;9.202;2023-06-22T10:32:33;15.75;;;8.40;;
30617;SDS011;17384;51.214;9.202;2023-06-22T10:34:58;9.65;;;7.95;;
30617;SDS011;17384;51.214;9.202;2023-06-22T10:37:24;9.82;;;7.82;;
30617;SDS011;17384;51.214;9.202;2023-06-22T10:39:49;11.10;;;8.35;;
30617;SDS011;17384;51.214;9.202;2023-06-22T10:42:15;11.38;;;8.00;;
30617;SDS011;17384;51.214;9.202;2023-06-22T10:44:40;15.18;;;7.63;;
30617;SDS011;17384;51.214;9.202;2023-06-22T10:47:08;10.70;;;8.27;;
30617;SDS011;17384;51.214;9.202;2023-06-22T10:49:33;11.45;;;9.27;;
30617;SDS011;17384;51.214;9.202;2023-06-22T10:51:59;12.30;;;8.65;;
30617;SDS011;17384;51.214;9.202;2023-06-22T10:54:24;10.68;;;8.52;;
30617;SDS011;17384;51.214;9.202;2023-06-22T10:56:50;10.73;;;7.47;;
30617;SDS011;17384;51.214;9.202;2023-06-22T10:59:15;14.43;;;8.13;;
30617;SDS011;17384;51.214;9.202;2023-06-22T11:01:41;10.77;;;8.68;;
30617;SDS011;17384;51.214;9.202;2023-06-22T11:04:06;8.77;;;7.38;;
30617;SDS011;17384;51.214;9.202;2023-06-22T11:06:32;16.13;;;7.97;;
30617;SDS011;17384;51.214;9.202;2023-06-22T11:08:57;10.93;;;8.07;;
30617;SDS011;17384;51.214;9.202;2023-06-22T11:11:25;9.55;;;7.85;;
30617;SDS011;17384;51.214;9.202;2023-06-22T11:13:50;12.88;;;8.00;;
30617;SDS011;17384;51.214;9.202;2023-06-22T11:16:16;11.35;;;7.93;;
30617;SDS011;17384;51.214;9.202;2023-06-22T11:18:41;10.65;;;7.80;;
30617;SDS011;17384;51.214;9.202;2023-06-22T11:21:07;12.52;;;7.88;;
30617;SDS011;17384;51.214;9.202;2023-06-22T11:23:32;9.30;;;7.85;;
30617;SDS011;17384;51.214;9.202;2023-06-22T11:25:58;8.15;;;7.35;;
30617;SDS011;17384;51.214;9.202;2023-06-22T11:28:23;9.63;;;7.70;;
30617;SDS011;17384;51.214;9.202;2023-06-22T11:30:48;13.75;;;7.95;;
30617;SDS011;17384;51.214;9.202;2023-06-22T11:33:14;11.10;;;7.90;;
30617;SDS011;17384;51.214;9.202;2023-06-22T11:35:40;9.82;;;7.68;;
30617;SDS011;17384;51.214;9.202;2023-06-22T11:38:05;11.02;;;8.15;;
30617;SDS011;17384;51.214;9.202;2023-06-22T11:40:30;13.38;;;7.18;;
30617;SDS011;17384;51.214;9.202;2023-06-22T11:42:56;12.45;;;7.60;;
30617;SDS011;17384;51.214;9.202;2023-06-22T11:45:21;9.63;;;8.20;;
30617;SDS011;17384;51.214;9.202;2023-06-22T11:47:47;12.05;;;7.50;;
30617;SDS011;17384;51.214;9.202;2023-06-22T11:50:12;10.63;;;7.10;;
30617;SDS011;17384;51.214;9.202;2023-06-22T11:52:38;9.30;;;7.53;;
30617;SDS011;17384;51.214;9.202;2023-06-22T11:55:04;8.18;;;6.85;;
30617;SDS011;17384;51.214;9.202;2023-06-22T11:57:35;11.23;;;7.38;;
30617;SDS011;17384;51.214;9.202;2023-06-22T12:00:05;10.02;;;7.00;;
30617;SDS011;17384;51.214;9.202;2023-06-22T12:02:41;11.52;;;7.57;;
30617;SDS011;17384;51.214;9.202;2023-06-22T12:05:06;12.23;;;7.25;;
30617;SDS011;17384;51.214;9.202;2023-06-22T12:07:33;9.13;;;7.57;;
30617;SDS011;17384;51.214;9.202;2023-06-22T12:09:58;10.13;;;7.15;;
30617;SDS011;17384;51.214;9.202;2023-06-22T12:12:24;9.05;;;7.53;;
30617;SDS011;17384;51.214;9.202;2023-06-22T12:14:49;10.73;;;7.80;;
30617;SDS011;17384;51.214;9.202;2023-06-22T12:17:15;12.32;;;7.93;;
30617;SDS011;17384;51.214;9.202;2023-06-22T12:19:40;10.80;;;7.00;;
30617;SDS011;17384;51.214;9.202;2023-06-22T12:22:06;10.10;;;8.57;;
30617;SDS011;17384;51.214;9.202;2023-06-22T12:24:31;10.65;;;7.95;;
30617;SDS011;17384;51.214;9.202;2023-06-22T12:26:57;8.77;;;6.93;;
30617;SDS011;17384;51.214;9.202;2023-06-22T12:29:22;8.18;;;7.28;;
30617;SDS011;17384;51.214;9.202;2023-06-22T12:31:47;9.65;;;7.50;;
30617;SDS011;17384;51.214;9.202;2023-06-22T12:34:13;8.68;;;7.10;;
30617;SDS011;17384;51.214;9.202;2023-06-22T12:36:38;7.70;;;6.97;;
30617;SDS011;17384;51.214;9.202;2023-06-22T12:39:04;10.18;;;7.18;;
30617;SDS011;17384;51.214;9.202;2023-06-22T12:41:29;8.85;;;7.13;;
30617;SDS011;17384;51.214;9.202;2023-06-22T12:43:54;8.48;;;6.85;;
30617;SDS011;17384;51.214;9.202;2023-06-22T12:46:20;8.45;;;7.22;;
30617;SDS011;17384;51.214;9.202;2023-06-22T12:48:45;8.88;;;7.07;;
30617;SDS011;17384;51.214;9.202;2023-06-22T12:51:11;10.15;;;7.57;;
30617;SDS011;17384;51.214;9.202;2023-06-22T12:53:37;8.63;;;7.32;;
30617;SDS011;17384;51.214;9.202;2023-06-22T12:56:03;9.77;;;7.50;;
30617;SDS011;17384;51.214;9.202;2023-06-22T12:58:28;8.25;;;7.20;;
30617;SDS011;17384;51.214;9.202;2023-06-22T13:00:54;10.90;;;7.68;;
30617;SDS011;17384;51.214;9.202;2023-06-22T13:03:19;8.63;;;7.50;;
30617;SDS011;17384;51.214;9.202;2023-06-22T13:05:45;9.05;;;6.88;;
30617;SDS011;17384;51.214;9.202;2023-06-22T13:08:10;9.68;;;7.13;;
30617;SDS011;17384;51.214;9.202;2023-06-22T13:10:36;13.15;;;7.88;;
30617;SDS011;17384;51.214;9.202;2023-06-22T13:13:02;10.52;;;7.07;;
30617;SDS011;17384;51.214;9.202;2023-06-22T13:15:27;12.35;;;7.63;;
30617;SDS011;17384;51.214;9.202;2023-06-22T13:17:54;8.68;;;7.00;;
30617;SDS011;17384;51.214;9.202;2023-06-22T13:20:20;9.10;;;7.57;;
30617;SDS011;17384;51.214;9.202;2023-06-22T13:22:45;12.52;;;8.18;;
30617;SDS011;17384;51.214;9.202;2023-06-22T13:25:11;10.77;;;8.02;;
30617;SDS011;17384;51.214;9.202;2023-06-22T13:27:41;12.60;;;8.45;;
30617;SDS011;17384;51.214;9.202;2023-06-22T13:30:07;12.10;;;7.88;;
30617;SDS011;17384;51.214;9.202;2023-06-22T13:32:33;12.13;;;7.65;;
30617;SDS011;17384;51.214;9.202;2023-06-22T13:34:59;9.60;;;7.85;;
30617;SDS011;17384;51.214;9.202;2023-06-22T13:37:25;13.45;;;7.70;;
30617;SDS011;17384;51.214;9.202;2023-06-22T13:39:51;11.35;;;7.68;;
30617;SDS011;17384;51.214;9.202;2023-06-22T13:42:17;10.65;;;8.25;;
30617;SDS011;17384;51.214;9.202;2023-06-22T13:44:42;10.18;;;8.27;;
30617;SDS011;17384;51.214;9.202;2023-06-22T13:47:08;10.60;;;8.90;;
30617;SDS011;17384;51.214;9.202;2023-06-22T13:49:35;12.95;;;8.50;;
30617;SDS011;17384;51.214;9.202;2023-06-22T13:52:00;13.52;;;9.60;;
30617;SDS011;17384;51.214;9.202;2023-06-22T13:54:29;15.27;;;9.15;;
30617;SDS011;17384;51.214;9.202;2023-06-22T13:56:56;10.43;;;8.85;;
30617;SDS011;17384;51.214;9.202;2023-06-22T13:59:22;13.10;;;9.82;;
30617;SDS011;17384;51.214;9.202;2023-06-22T14:01:47;15.65;;;9.65;;
30617;SDS011;17384;51.214;9.202;2023-06-22T14:04:13;15.38;;;9.85;;
30617;SDS011;17384;51.214;9.202;2023-06-22T14:06:38;15.18;;;10.38;;
30617;SDS011;17384;51.214;9.202;2023-06-22T14:09:05;12.70;;;9.68;;
30617;SDS011;17384;51.214;9.202;2023-06-22T14:28:05;10.20;;;2.70;;
30617;SDS011;17384;51.214;9.202;2023-06-22T14:30:30;5.97;;;2.60;;
30617;SDS011;17384;51.214;9.202;2023-06-22T14:32:56;14.40;;;3.20;;
30617;SDS011;17384;51.214;9.202;2023-06-22T14:35:22;23.25;;;4.03;;
30617;SDS011;17384;51.214;9.202;2023-06-22T14:37:49;15.52;;;3.70;;
30617;SDS011;17384;51.214;9.202;2023-06-22T14:40:14;16.13;;;3.55;;
30617;SDS011;17384;51.214;9.202;2023-06-22T14:42:40;14.13;;;4.05;;
30617;SDS011;17384;51.214;9.202;2023-06-22T14:45:05;11.35;;;2.97;;